createdAt,value
2022-11-30T00:01:15.283Z,4.36
2022-11-30T00:03:42.217Z,4.22
2022-11-30T00:06:14.604Z,4.45
2022-11-30T00:08:41.291Z,4.49
2022-11-30T00:11:17.891Z,4.48
2022-11-30T00:13:44.427Z,4.56
2022-11-30T00:16:10.940Z,4.52
2022-11-30T00:18:37.904Z,4.50
2022-11-30T00:21:06.424Z,4.52
2022-11-30T00:23:34.408Z,4.54
2022-11-30T00:26:02.518Z,4.62
2022-11-30T00:28:30.696Z,4.64
2022-11-30T00:31:01.620Z,4.67
2022-11-30T00:33:28.873Z,4.69
2022-11-30T00:36:00.148Z,4.71
2022-11-30T00:38:28.427Z,4.56
2022-11-30T00:40:56.522Z,4.70
2022-11-30T00:43:23.484Z,4.75
2022-11-30T00:45:50.134Z,4.74
2022-11-30T00:48:16.749Z,4.71
2022-11-30T00:50:43.275Z,4.74
2022-11-30T00:53:09.737Z,4.73
2022-11-30T00:55:36.243Z,4.74
2022-11-30T00:58:02.711Z,4.75
2022-11-30T01:00:29.379Z,4.73
2022-11-30T01:02:57.012Z,4.79
2022-11-30T01:05:23.446Z,4.63
2022-11-30T01:07:49.997Z,4.73
2022-11-30T01:10:17.065Z,4.75
2022-11-30T01:12:43.562Z,4.74
2022-11-30T01:15:10.722Z,4.70
2022-11-30T01:17:37.846Z,4.69
2022-11-30T01:20:06.347Z,4.71
2022-11-30T01:22:32.764Z,4.78
2022-11-30T01:24:59.653Z,4.79
2022-11-30T01:27:26.118Z,4.72
2022-11-30T01:29:52.599Z,4.80
2022-11-30T01:32:19.047Z,4.80
2022-11-30T01:34:45.911Z,4.80
2022-11-30T01:37:13.463Z,4.79
2022-11-30T01:39:40.037Z,4.79
2022-11-30T01:42:16.332Z,4.78
2022-11-30T01:44:55.115Z,4.83
2022-11-30T01:47:29.510Z,4.82
2022-11-30T01:50:11.249Z,4.74
2022-11-30T01:52:41.385Z,4.83
2022-11-30T01:55:18.417Z,4.60
2022-11-30T01:57:51.183Z,4.86
2022-11-30T02:00:18.763Z,4.71
2022-11-30T02:02:55.096Z,4.81
2022-11-30T02:05:22.004Z,4.83
2022-11-30T02:07:48.635Z,4.80
2022-11-30T02:10:17.893Z,4.70
2022-11-30T02:13:22.096Z,4.83
2022-11-30T02:16:10.521Z,4.78
2022-11-30T02:18:42.992Z,4.63
2022-11-30T02:21:18.499Z,4.71
2022-11-30T02:24:03.626Z,4.62
2022-11-30T02:27:01.154Z,4.71
2022-11-30T02:29:38.273Z,4.70
2022-11-30T02:32:16.980Z,4.68
2022-11-30T02:34:46.748Z,4.63
2022-11-30T02:37:14.745Z,4.59
2022-11-30T02:39:43.063Z,4.48
2022-11-30T02:42:14.237Z,4.40
2022-11-30T02:44:49.307Z,4.42
2022-11-30T02:47:36.569Z,4.25
2022-11-30T02:50:17.882Z,4.41
2022-11-30T02:52:45.324Z,4.40
2022-11-30T02:55:17.621Z,4.39
2022-11-30T02:57:44.164Z,4.33
2022-11-30T03:00:12.497Z,4.30
2022-11-30T03:02:40.130Z,4.31
2022-11-30T03:05:07.659Z,4.37
2022-11-30T03:07:34.217Z,4.51
2022-11-30T03:10:00.721Z,4.42
2022-11-30T03:12:27.488Z,4.43
2022-11-30T03:14:53.917Z,4.46
2022-11-30T03:17:20.361Z,4.36
2022-11-30T03:19:46.805Z,4.49
2022-11-30T03:22:13.267Z,4.50
2022-11-30T03:24:39.684Z,4.47
2022-11-30T03:27:06.196Z,4.55
2022-11-30T03:29:32.667Z,4.58
2022-11-30T03:31:59.116Z,4.64
2022-11-30T03:34:26.426Z,4.72
2022-11-30T03:36:53.236Z,4.72
2022-11-30T03:39:19.668Z,4.69
2022-11-30T03:41:46.076Z,4.72
2022-11-30T03:44:12.606Z,4.72
2022-11-30T03:46:39.293Z,4.78
2022-11-30T03:49:05.836Z,4.73
2022-11-30T03:51:32.279Z,4.72
2022-11-30T03:53:58.927Z,4.71
2022-11-30T03:56:25.658Z,4.71
2022-11-30T03:58:52.115Z,4.67
2022-11-30T04:01:23.895Z,4.70
2022-11-30T04:03:51.791Z,4.75
2022-11-30T04:06:19.460Z,4.68
2022-11-30T04:08:46.767Z,4.65
2022-11-30T04:11:13.440Z,4.72
2022-11-30T04:13:40.229Z,4.65
2022-11-30T04:16:07.509Z,4.55
2022-11-30T04:18:35.496Z,4.67
2022-11-30T04:21:02.058Z,4.69
2022-11-30T04:23:34.708Z,4.73
2022-11-30T04:26:04.114Z,4.75
2022-11-30T04:28:30.699Z,4.78
2022-11-30T04:30:57.384Z,4.75
2022-11-30T04:33:23.866Z,4.83
2022-11-30T04:35:54.111Z,4.85
2022-11-30T04:38:20.581Z,4.80
2022-11-30T04:40:46.994Z,4.80
2022-11-30T04:43:14.003Z,4.87
2022-11-30T04:45:41.115Z,4.84
2022-11-30T04:48:07.722Z,4.87
2022-11-30T04:50:34.737Z,4.82
2022-11-30T04:53:01.284Z,4.83
2022-11-30T04:55:27.861Z,4.82
2022-11-30T04:57:54.381Z,4.79
2022-11-30T05:00:21.092Z,4.81
2022-11-30T05:02:52.745Z,4.80
2022-11-30T05:05:20.318Z,4.80
2022-11-30T05:07:57.095Z,4.85
2022-11-30T05:10:25.390Z,4.86
2022-11-30T05:12:52.306Z,4.81
2022-11-30T05:15:19.282Z,4.76
2022-11-30T05:17:45.742Z,4.80
2022-11-30T05:20:12.194Z,4.82
2022-11-30T05:22:38.664Z,4.82
2022-11-30T05:25:05.496Z,4.64
2022-11-30T05:27:31.914Z,4.85
2022-11-30T05:29:58.940Z,4.90
2022-11-30T05:32:25.512Z,4.91
2022-11-30T05:34:52.288Z,4.93
2022-11-30T05:37:19.777Z,4.91
2022-11-30T05:39:46.439Z,5.85
2022-11-30T05:42:12.865Z,6.32
2022-11-30T05:44:39.317Z,6.57
2022-11-30T05:47:05.946Z,6.98
2022-11-30T05:49:32.368Z,7.18
2022-11-30T05:51:58.882Z,7.34
2022-11-30T05:54:25.277Z,7.44
2022-11-30T05:56:54.899Z,7.52
2022-11-30T05:59:22.521Z,7.64
2022-11-30T06:01:49.181Z,7.66
2022-11-30T06:04:15.714Z,7.72
2022-11-30T06:06:42.180Z,7.72
2022-11-30T06:09:08.615Z,7.69
2022-11-30T06:11:35.009Z,7.21
2022-11-30T06:14:01.594Z,6.90
2022-11-30T06:16:28.246Z,6.59
2022-11-30T06:18:54.748Z,6.30
2022-11-30T06:21:24.379Z,6.15
2022-11-30T06:23:51.733Z,5.98
2022-11-30T06:26:18.215Z,5.71
2022-11-30T06:28:48.273Z,5.79
2022-11-30T06:31:15.747Z,5.74
2022-11-30T06:33:42.362Z,5.60
2022-11-30T06:36:09.364Z,5.61
2022-11-30T06:38:35.774Z,5.61
2022-11-30T06:41:07.722Z,5.56
2022-11-30T06:43:39.013Z,5.48
2022-11-30T06:46:07.105Z,5.50
2022-11-30T06:48:34.746Z,5.27
2022-11-30T06:51:01.887Z,5.41
2022-11-30T06:53:28.333Z,5.43
2022-11-30T06:55:54.783Z,5.40
2022-11-30T06:58:21.807Z,5.38
2022-11-30T07:00:48.484Z,5.33
2022-11-30T07:03:15.174Z,5.38
2022-11-30T07:05:46.192Z,5.27
2022-11-30T07:08:15.370Z,5.25
2022-11-30T07:10:46.816Z,5.30
2022-11-30T07:13:16.085Z,5.19
2022-11-30T07:15:43.299Z,5.11
2022-11-30T07:18:10.108Z,5.26
2022-11-30T07:20:38.843Z,5.07
2022-11-30T07:23:24.896Z,5.17
2022-11-30T07:26:09.168Z,5.14
2022-11-30T07:28:37.820Z,5.12
2022-11-30T07:31:16.638Z,5.24
2022-11-30T07:33:43.806Z,5.18
2022-11-30T07:36:10.956Z,5.05
2022-11-30T07:38:38.408Z,5.12
2022-11-30T07:41:05.285Z,5.13
2022-11-30T07:43:32.968Z,5.04
2022-11-30T07:46:00.591Z,5.00
2022-11-30T07:48:27.702Z,4.96
2022-11-30T07:50:54.621Z,4.90
2022-11-30T07:53:21.146Z,4.90
2022-11-30T07:55:50.520Z,4.87
2022-11-30T07:58:19.231Z,4.82
2022-11-30T08:00:45.743Z,4.80
2022-11-30T08:03:12.363Z,4.77
2022-11-30T08:05:38.845Z,4.76
2022-11-30T08:08:05.297Z,4.70
2022-11-30T08:10:31.843Z,4.69
2022-11-30T08:12:58.334Z,4.66
2022-11-30T08:15:31.892Z,4.61
2022-11-30T08:18:05.089Z,4.69
2022-11-30T08:20:31.762Z,4.67
2022-11-30T08:22:58.719Z,4.75
2022-11-30T08:25:25.143Z,4.78
2022-11-30T08:27:51.569Z,4.85
2022-11-30T08:30:18.004Z,4.85
2022-11-30T08:32:44.561Z,4.62
2022-11-30T08:35:10.969Z,4.56
2022-11-30T08:37:37.889Z,4.48
2022-11-30T08:40:05.987Z,4.56
2022-11-30T08:42:32.482Z,4.53
2022-11-30T08:44:59.104Z,4.49
2022-11-30T08:47:25.787Z,4.26
2022-11-30T08:49:52.672Z,4.22
2022-11-30T08:52:19.368Z,4.31
2022-11-30T08:54:47.921Z,4.28
2022-11-30T08:57:17.547Z,4.31
2022-11-30T08:59:44.092Z,4.32
2022-11-30T09:02:13.325Z,4.31
2022-11-30T09:04:39.806Z,4.41
2022-11-30T09:07:06.343Z,4.39
2022-11-30T09:09:32.819Z,4.26
2022-11-30T09:11:59.300Z,4.23
2022-11-30T09:14:25.820Z,4.31
2022-11-30T09:16:54.082Z,4.39
2022-11-30T09:19:21.537Z,4.19
2022-11-30T09:21:52.024Z,4.38
2022-11-30T09:24:19.761Z,4.32
2022-11-30T09:26:46.260Z,4.28
2022-11-30T09:29:12.824Z,4.31
2022-11-30T09:31:39.309Z,4.34
2022-11-30T09:34:05.764Z,4.29
2022-11-30T09:36:33.843Z,4.42
2022-11-30T09:39:00.272Z,4.40
2022-11-30T09:41:50.813Z,4.30
2022-11-30T09:44:50.613Z,4.38
2022-11-30T09:47:35.819Z,4.34
2022-11-30T09:50:10.445Z,4.48
2022-11-30T09:52:42.891Z,4.59
2022-11-30T09:55:13.558Z,4.64
2022-11-30T09:57:45.005Z,4.53
2022-11-30T10:00:18.979Z,4.68
2022-11-30T10:02:45.782Z,4.70
2022-11-30T10:05:16.212Z,4.70
2022-11-30T10:08:17.810Z,4.63
2022-11-30T10:11:03.199Z,4.60
2022-11-30T10:13:41.532Z,4.42
2022-11-30T10:16:24.652Z,4.45
2022-11-30T10:19:06.095Z,4.36
2022-11-30T10:21:54.965Z,4.53
2022-11-30T10:24:33.441Z,4.61
2022-11-30T10:27:06.659Z,4.70
2022-11-30T10:29:41.552Z,4.65
2022-11-30T10:32:22.012Z,4.85
2022-11-30T10:34:53.138Z,4.87
2022-11-30T10:37:27.099Z,4.93
2022-11-30T10:40:13.422Z,4.75
2022-11-30T10:42:50.079Z,4.65
2022-11-30T10:45:21.177Z,4.64
2022-11-30T10:48:07.745Z,4.66
2022-11-30T10:50:34.496Z,4.66
2022-11-30T10:53:01.633Z,4.76
2022-11-30T10:55:31.459Z,4.60
2022-11-30T10:58:26.403Z,4.57
2022-11-30T11:01:21.553Z,4.45
2022-11-30T11:03:48.400Z,4.39
2022-11-30T11:06:23.304Z,4.53
2022-11-30T11:08:51.147Z,4.55
2022-11-30T11:11:30.438Z,4.59
2022-11-30T11:14:18.107Z,4.44
2022-11-30T11:16:54.892Z,4.45
2022-11-30T11:19:46.501Z,4.48
2022-11-30T11:22:13.048Z,4.50
2022-11-30T11:24:39.704Z,4.23
2022-11-30T11:27:06.313Z,4.31
2022-11-30T11:29:35.090Z,4.20
2022-11-30T11:32:18.011Z,4.43
2022-11-30T11:34:50.708Z,4.36
2022-11-30T11:37:33.606Z,3.94
2022-11-30T11:40:16.324Z,4.47
2022-11-30T11:42:47.767Z,4.37
2022-11-30T11:45:17.964Z,4.53
2022-11-30T11:47:45.776Z,4.51
2022-11-30T11:50:12.271Z,4.56
2022-11-30T11:52:38.924Z,4.45
2022-11-30T11:55:13.691Z,4.40
2022-11-30T11:58:02.380Z,4.55
2022-11-30T12:00:29.016Z,4.56
2022-11-30T12:03:13.977Z,4.60
2022-11-30T12:05:44.434Z,4.62
2022-11-30T12:08:19.256Z,4.76
2022-11-30T12:10:55.597Z,4.76
2022-11-30T12:13:27.231Z,4.68
2022-11-30T12:16:17.091Z,4.65
2022-11-30T12:18:52.036Z,4.59
2022-11-30T12:21:21.534Z,4.63
2022-11-30T12:24:13.224Z,4.55
2022-11-30T12:26:48.355Z,4.61
2022-11-30T12:29:25.125Z,4.74
2022-11-30T12:32:02.925Z,4.68
2022-11-30T12:34:49.326Z,4.62
2022-11-30T12:37:28.131Z,4.62
2022-11-30T12:40:32.971Z,4.52
2022-11-30T12:43:25.530Z,4.56
2022-11-30T12:46:03.742Z,4.63
2022-11-30T12:49:05.634Z,4.58
2022-11-30T12:51:58.880Z,4.67
2022-11-30T12:54:48.266Z,4.74
2022-11-30T12:57:19.565Z,4.63
2022-11-30T13:00:02.361Z,4.74
2022-11-30T13:02:39.639Z,4.64
2022-11-30T13:05:14.001Z,4.49
2022-11-30T13:07:51.444Z,4.67
2022-11-30T13:10:44.224Z,4.85
2022-11-30T13:13:18.313Z,4.68
2022-11-30T13:15:45.034Z,4.75
2022-11-30T13:18:17.755Z,4.67
2022-11-30T13:21:06.936Z,4.66
2022-11-30T13:24:04.313Z,4.63
2022-11-30T13:26:39.027Z,4.12
2022-11-30T13:29:22.745Z,4.66
2022-11-30T13:32:04.345Z,4.63
2022-11-30T13:34:32.843Z,4.78
2022-11-30T13:37:02.303Z,4.85
2022-11-30T13:39:33.953Z,4.97
2022-11-30T13:42:00.433Z,4.78
2022-11-30T13:44:33.641Z,4.85
2022-11-30T13:47:34.523Z,4.81
2022-11-30T13:50:07.894Z,4.74
2022-11-30T13:53:02.385Z,4.72
2022-11-30T13:56:05.276Z,4.68
2022-11-30T13:58:32.420Z,4.67
2022-11-30T14:01:21.039Z,4.68
2022-11-30T14:04:15.899Z,4.70
2022-11-30T14:06:42.314Z,4.19
2022-11-30T14:09:41.287Z,4.76
2022-11-30T14:12:37.147Z,4.58
2022-11-30T14:15:31.663Z,4.52
2022-11-30T14:17:59.008Z,4.53
2022-11-30T14:20:37.522Z,4.56
2022-11-30T14:23:13.102Z,4.53
2022-11-30T14:25:46.914Z,4.74
2022-11-30T14:28:17.567Z,4.82
2022-11-30T14:30:44.252Z,4.76
2022-11-30T14:33:39.506Z,4.74
2022-11-30T14:36:07.625Z,4.69
2022-11-30T14:38:41.059Z,4.73
2022-11-30T14:41:19.394Z,4.78
2022-11-30T14:44:06.945Z,4.95
2022-11-30T14:46:34.983Z,4.85
2022-11-30T14:49:14.581Z,4.84
2022-11-30T14:51:44.677Z,4.61
2022-11-30T14:54:36.498Z,4.94
2022-11-30T14:57:13.394Z,4.81
2022-11-30T14:59:53.112Z,4.89
2022-11-30T15:02:26.374Z,4.83
2022-11-30T15:04:55.567Z,4.95
2022-11-30T15:07:23.589Z,5.04
2022-11-30T15:09:56.640Z,5.11
2022-11-30T15:12:24.784Z,5.12
2022-11-30T15:15:17.015Z,5.13
2022-11-30T15:17:58.559Z,5.23
2022-11-30T15:20:29.755Z,5.22
2022-11-30T15:23:00.375Z,5.06
2022-11-30T15:25:58.322Z,5.14
2022-11-30T15:28:33.972Z,5.14
2022-11-30T15:31:05.271Z,5.17
2022-11-30T15:33:40.553Z,5.15
2022-11-30T15:36:28.237Z,5.05
2022-11-30T15:38:54.309Z,5.00
2022-11-30T15:41:23.836Z,5.11
2022-11-30T15:43:56.411Z,5.04
2022-11-30T15:46:41.208Z,4.92
2022-11-30T15:49:10.830Z,5.02
2022-11-30T15:51:39.627Z,5.09
2022-11-30T15:54:06.113Z,5.17
2022-11-30T15:56:32.639Z,5.17
2022-11-30T15:59:07.791Z,5.22
2022-11-30T16:02:02.721Z,5.28
2022-11-30T16:04:58.168Z,5.25
2022-11-30T16:07:28.356Z,5.29
2022-11-30T16:10:15.194Z,5.26
2022-11-30T16:12:43.778Z,5.18
2022-11-30T16:15:20.134Z,5.18
2022-11-30T16:17:46.630Z,5.15
2022-11-30T16:20:14.034Z,5.04
2022-11-30T16:22:46.208Z,4.88
2022-11-30T16:25:18.149Z,4.86
2022-11-30T16:27:44.705Z,4.78
2022-11-30T16:30:16.719Z,4.82
2022-11-30T16:32:43.517Z,4.86
2022-11-30T16:35:26.120Z,4.54
2022-11-30T16:37:53.420Z,4.60
2022-11-30T16:40:21.024Z,4.71
2022-11-30T16:42:49.567Z,4.53
2022-11-30T16:45:21.314Z,4.72
2022-11-30T16:47:48.198Z,4.73
2022-11-30T16:50:15.102Z,4.63
2022-11-30T16:52:42.669Z,4.64
2022-11-30T16:55:21.648Z,4.62
2022-11-30T16:57:49.303Z,4.74
2022-11-30T17:00:19.106Z,4.75
2022-11-30T17:03:02.408Z,4.71
2022-11-30T17:05:28.909Z,4.75
2022-11-30T17:07:55.447Z,4.75
2022-11-30T17:10:22.484Z,4.71
2022-11-30T17:12:49.171Z,4.87
2022-11-30T17:15:19.007Z,4.89
2022-11-30T17:17:45.547Z,4.86
2022-11-30T17:20:14.203Z,4.92
2022-11-30T17:22:41.548Z,4.97
2022-11-30T17:25:13.283Z,4.96
2022-11-30T17:27:39.854Z,5.01
2022-11-30T17:30:07.054Z,4.95
2022-11-30T17:32:33.758Z,4.88
2022-11-30T17:35:00.224Z,5.00
2022-11-30T17:37:26.781Z,4.99
2022-11-30T17:39:53.206Z,5.00
2022-11-30T17:42:19.693Z,4.95
2022-11-30T17:44:46.570Z,5.02
2022-11-30T17:47:13.329Z,4.98
2022-11-30T17:49:40.354Z,4.99
2022-11-30T17:52:06.799Z,5.09
2022-11-30T17:54:33.200Z,5.02
2022-11-30T17:56:59.726Z,5.08
2022-11-30T17:59:26.137Z,5.04
2022-11-30T18:01:52.607Z,5.06
2022-11-30T18:04:19.106Z,5.15
2022-11-30T18:06:45.500Z,5.12
2022-11-30T18:09:12.357Z,5.10
2022-11-30T18:11:38.946Z,5.14
2022-11-30T18:14:05.397Z,5.16
2022-11-30T18:16:34.311Z,5.16
2022-11-30T18:19:00.763Z,5.10
2022-11-30T18:21:29.605Z,5.05
2022-11-30T18:23:57.792Z,5.10
2022-11-30T18:26:26.030Z,4.89
2022-11-30T18:28:54.612Z,5.05
2022-11-30T18:31:21.890Z,5.02
2022-11-30T18:33:48.528Z,5.04
2022-11-30T18:36:15.069Z,5.02
2022-11-30T18:38:41.662Z,5.04
2022-11-30T18:41:08.064Z,5.07
2022-11-30T18:43:35.140Z,5.02
2022-11-30T18:46:03.823Z,5.05
2022-11-30T18:48:30.398Z,5.03
2022-11-30T18:50:56.887Z,5.13
2022-11-30T18:53:23.894Z,5.06
2022-11-30T18:55:50.770Z,5.13
2022-11-30T18:58:17.461Z,5.20
2022-11-30T19:00:43.898Z,5.15
2022-11-30T19:03:10.603Z,5.04
2022-11-30T19:05:38.321Z,5.09
2022-11-30T19:08:07.818Z,5.04
2022-11-30T19:10:36.154Z,4.98
2022-11-30T19:13:04.142Z,5.07
2022-11-30T19:15:36.155Z,5.00
2022-11-30T19:18:02.645Z,5.01
2022-11-30T19:20:29.023Z,4.94
2022-11-30T19:22:55.476Z,4.97
2022-11-30T19:25:21.896Z,5.05
2022-11-30T19:27:48.307Z,4.96
2022-11-30T19:30:15.277Z,4.97
2022-11-30T19:32:41.716Z,4.70
2022-11-30T19:35:08.277Z,4.85
2022-11-30T19:37:34.770Z,4.81
2022-11-30T19:40:01.292Z,4.89
2022-11-30T19:42:29.884Z,4.94
2022-11-30T19:44:56.327Z,4.95
2022-11-30T19:47:22.785Z,5.00
2022-11-30T19:49:49.188Z,4.89
2022-11-30T19:52:15.615Z,4.65
2022-11-30T19:54:42.115Z,4.62
2022-11-30T19:57:08.569Z,4.75
2022-11-30T19:59:35.086Z,4.69
2022-11-30T20:02:01.916Z,4.81
2022-11-30T20:04:28.393Z,4.65
2022-11-30T20:06:54.910Z,4.51
2022-11-30T20:09:21.459Z,4.49
2022-11-30T20:11:47.852Z,4.55
2022-11-30T20:14:17.591Z,4.56
2022-11-30T20:16:44.154Z,4.49
2022-11-30T20:19:10.812Z,4.59
2022-11-30T20:21:37.367Z,4.56
2022-11-30T20:24:07.112Z,4.43
2022-11-30T20:26:39.591Z,4.54
2022-11-30T20:29:08.472Z,4.57
2022-11-30T20:31:36.447Z,4.64
2022-11-30T20:34:03.591Z,4.56
2022-11-30T20:36:30.420Z,4.65
2022-11-30T20:38:58.300Z,4.73
2022-11-30T20:41:25.449Z,4.74
2022-11-30T20:43:52.376Z,4.71
2022-11-30T20:46:21.879Z,4.75
2022-11-30T20:48:48.612Z,4.67
2022-11-30T20:51:36.631Z,4.75
2022-11-30T20:54:07.103Z,4.78
2022-11-30T20:56:37.502Z,4.64
2022-11-30T20:59:06.379Z,4.74
2022-11-30T21:01:33.643Z,4.72
2022-11-30T21:04:00.788Z,4.55
2022-11-30T21:06:29.137Z,4.72
2022-11-30T21:08:55.800Z,4.27
2022-11-30T21:11:22.583Z,4.55
2022-11-30T21:13:50.065Z,4.64
2022-11-30T21:16:24.007Z,4.62
2022-11-30T21:18:52.240Z,4.68
2022-11-30T21:21:21.239Z,4.64
2022-11-30T21:23:49.237Z,4.66
2022-11-30T21:26:18.506Z,4.55
2022-11-30T21:28:46.119Z,4.44
2022-11-30T21:31:13.000Z,4.25
2022-11-30T21:33:39.686Z,4.52
2022-11-30T21:36:07.673Z,4.52
2022-11-30T21:38:34.573Z,4.46
2022-11-30T21:41:01.857Z,4.51
2022-11-30T21:43:29.827Z,4.50
2022-11-30T21:46:17.491Z,4.44
2022-11-30T21:48:46.074Z,4.36
2022-11-30T21:51:15.596Z,4.40
2022-11-30T21:53:47.572Z,4.41
2022-11-30T21:56:20.408Z,4.27
2022-11-30T21:58:48.091Z,4.37
2022-11-30T22:01:19.547Z,4.25
2022-11-30T22:03:46.349Z,4.23
2022-11-30T22:06:15.567Z,4.21
2022-11-30T22:08:42.921Z,4.26
2022-11-30T22:11:21.469Z,4.22
2022-11-30T22:13:53.445Z,4.14
2022-11-30T22:16:21.160Z,4.11
2022-11-30T22:18:48.064Z,4.10
2022-11-30T22:21:19.981Z,4.16
2022-11-30T22:23:51.632Z,4.15
2022-11-30T22:26:22.262Z,4.17
2022-11-30T22:28:54.377Z,4.21
2022-11-30T22:31:23.462Z,4.14
2022-11-30T22:33:50.068Z,4.16
2022-11-30T22:36:25.827Z,4.23
2022-11-30T22:38:56.966Z,4.21
2022-11-30T22:41:23.721Z,4.28
2022-11-30T22:43:50.249Z,4.31
2022-11-30T22:46:19.621Z,4.28
2022-11-30T22:48:46.933Z,4.10
2022-11-30T22:51:15.959Z,3.93
2022-11-30T22:53:42.663Z,3.88
2022-11-30T22:56:15.479Z,3.80
2022-11-30T22:58:43.595Z,3.80
2022-11-30T23:01:13.064Z,3.74
2022-11-30T23:03:40.976Z,3.82
2022-11-30T23:06:08.451Z,3.91
2022-11-30T23:08:37.511Z,3.83
2022-11-30T23:11:09.797Z,3.78
2022-11-30T23:13:36.687Z,3.82
2022-11-30T23:16:04.771Z,3.93
2022-11-30T23:18:40.679Z,3.91
2022-11-30T23:21:11.037Z,3.76
2022-11-30T23:23:37.488Z,3.89
2022-11-30T23:26:15.645Z,3.91
2022-11-30T23:28:44.063Z,3.97
2022-11-30T23:31:32.179Z,3.79
2022-11-30T23:34:02.763Z,3.98
2022-11-30T23:36:29.183Z,3.83
2022-11-30T23:39:06.948Z,3.66
2022-11-30T23:41:33.524Z,3.86
2022-11-30T23:44:00.031Z,3.72
2022-11-30T23:46:26.595Z,3.81
2022-11-30T23:48:53.164Z,3.90
2022-11-30T23:51:19.604Z,3.92
2022-11-30T23:53:46.383Z,3.94
2022-11-30T23:56:15.581Z,3.83
2022-11-30T23:58:42.444Z,3.85
